Time;durP1;ratioP1;P1;durP2;ratioP2;P2;SDS_P1;SDS_P2;PMS_P1;PMS_P2;Temp;Humidity;BMP_temperature;BMP_pressure;BME280_temperature;BME280_humidity;BME280_pressure;Samples;Min_cycle;Max_cycle;Signal;HPM_P1;HPM_P2
2022/11/26 00:01:18;;;;;;;2.40;2.30;;;2.60;99.90;;;;;;4983480;28;20295;-75
2022/11/26 00:03:44;;;;;;;14.48;13.93;;;2.60;99.90;;;;;;4984436;28;20034;-75
2022/11/26 00:06:41;;;;;;;4.22;4.07;;;2.70;99.90;;;;;;4983569;28;20058;-74
2022/11/26 00:09:14;;;;;;;9.85;9.50;;;2.10;99.90;;;;;;4989196;28;20050;-75
2022/11/26 00:11:40;;;;;;;0.10;0.10;;;2.60;99.90;;;;;;4983599;28;20464;-74
2022/11/26 00:14:15;;;;;;;8.23;7.85;;;2.60;99.90;;;;;;4982579;28;20328;-75
2022/11/26 00:16:42;;;;;;;0.52;0.52;;;2.50;99.90;;;;;;4980775;28;20425;-75
2022/11/26 00:19:08;;;;;;;2.13;2.05;;;2.60;99.90;;;;;;4980741;28;20241;-75
2022/11/26 00:21:36;;;;;;;1.88;1.77;;;2.60;99.90;;;;;;4981417;28;20057;-74
2022/11/26 00:24:03;;;;;;;0.55;0.55;;;2.60;99.90;;;;;;4981164;28;20106;-75
2022/11/26 00:26:29;;;;;;;10.30;9.75;;;2.50;99.90;;;;;;4983380;28;20037;-75
2022/11/26 00:28:58;;;;;;;5.72;5.47;;;2.50;99.90;;;;;;4980700;28;20026;-76
2022/11/26 00:31:24;;;;;;;16.08;15.00;;;2.50;99.90;;;;;;4980362;28;20061;-75
2022/11/26 00:33:51;;;;;;;0.13;0.13;;;;;;;;;;4981172;28;20113;-74
2022/11/26 00:36:30;;;;;;;7.25;6.72;;;2.60;99.90;;;;;;4980703;28;20049;-75
2022/11/26 00:39:05;;;;;;;0.10;0.10;;;2.60;99.90;;;;;;4980980;28;20026;-75
2022/11/26 00:41:37;;;;;;;13.52;10.63;;;2.70;99.90;;;;;;4981030;28;20505;-74
2022/11/26 00:44:03;;;;;;;0.10;0.10;;;2.70;99.90;;;;;;4980966;28;20022;-75
2022/11/26 00:46:29;;;;;;;4.28;4.07;;;;;;;;;;4980423;28;20545;-75
2022/11/26 00:48:55;;;;;;;0.10;0.10;;;2.70;99.90;;;;;;4981207;28;20022;-75
2022/11/26 00:51:25;;;;;;;0.08;0.08;;;2.70;99.90;;;;;;4981475;28;20113;-75
2022/11/26 00:53:54;;;;;;;0.20;0.20;;;2.70;99.90;;;;;;4979880;28;20035;-75
2022/11/26 00:56:21;;;;;;;0.57;0.57;;;2.70;99.90;;;;;;4962109;28;20053;-75
2022/11/26 00:58:48;;;;;;;0.20;0.20;;;2.70;99.90;;;;;;4979316;28;20041;-75
2022/11/26 01:01:18;;;;;;;0.13;0.13;;;2.70;99.90;;;;;;4962784;28;20023;-75
2022/11/26 01:03:44;;;;;;;14.60;10.88;;;2.70;99.90;;;;;;4981301;28;20058;-75
2022/11/26 01:06:33;;;;;;;0.95;0.95;;;2.70;99.90;;;;;;4981260;28;20113;-75
2022/11/26 01:08:59;;;;;;;0.60;0.57;;;2.70;99.90;;;;;;4981440;28;20221;-75
2022/11/26 01:11:25;;;;;;;0.10;0.10;;;2.70;99.90;;;;;;4961709;28;20410;-75
2022/11/26 01:13:53;;;;;;;22.33;10.18;;;2.70;99.90;;;;;;4979357;28;20517;-75
2022/11/26 01:16:25;;;;;;;0.10;0.10;;;2.60;99.90;;;;;;4979392;28;20109;-75
2022/11/26 01:18:55;;;;;;;0.10;0.10;;;2.60;99.90;;;;;;4979900;28;20030;-75
2022/11/26 01:21:22;;;;;;;0.10;0.10;;;2.60;99.90;;;;;;4979355;28;20026;-75
2022/11/26 01:23:48;;;;;;;0.50;0.50;;;2.70;99.90;;;;;;4946058;28;20031;-75
2022/11/26 01:26:26;;;;;;;0.10;0.10;;;2.70;99.90;;;;;;4979429;28;20492;-74
2022/11/26 01:28:53;;;;;;;0.10;0.10;;;2.70;99.90;;;;;;4979240;28;20501;-75
2022/11/26 01:31:25;;;;;;;0.10;0.10;;;2.70;99.90;;;;;;4979329;28;20080;-74
2022/11/26 01:33:51;;;;;;;0.10;0.10;;;;;;;;;;4978847;28;20060;-74
2022/11/26 01:36:26;;;;;;;1.85;1.75;;;2.50;99.90;;;;;;4979151;28;20629;-75
2022/11/26 01:38:59;;;;;;;0.10;0.10;;;2.60;99.90;;;;;;4979068;28;20026;-74
2022/11/26 01:41:26;;;;;;;0.15;0.15;;;;;;;;;;4978910;28;20775;-76
2022/11/26 01:43:53;;;;;;;8.25;7.72;;;2.60;99.90;;;;;;4978981;28;20014;-75
2022/11/26 01:46:21;;;;;;;0.25;0.25;;;2.60;99.90;;;;;;4978829;28;20015;-75
2022/11/26 01:48:48;;;;;;;0.10;0.10;;;2.50;99.90;;;;;;4979227;28;20212;-75
2022/11/26 01:51:27;;;;;;;0.00;0.00;;;2.50;99.90;;;;;;4978771;28;20030;-75
2022/11/26 01:53:58;;;;;;;0.08;0.08;;;2.60;99.90;;;;;;4978482;28;20038;-75
2022/11/26 01:56:36;;;;;;;0.10;0.10;;;2.50;99.90;;;;;;4979092;28;20027;-75
2022/11/26 01:59:20;;;;;;;0.10;0.10;;;2.50;99.90;;;;;;4978627;28;20088;-75
2022/11/26 02:01:48;;;;;;;0.10;0.10;;;2.50;99.90;;;;;;4978168;28;20034;-76
2022/11/26 02:04:22;;;;;;;0.22;0.22;;;2.60;99.90;;;;;;4978139;28;20637;-77
2022/11/26 02:06:49;;;;;;;0.25;0.25;;;2.60;99.90;;;;;;4978230;28;20534;-75
2022/11/26 02:09:16;;;;;;;22.30;20.55;;;2.60;99.90;;;;;;4979592;28;20023;-75
2022/11/26 02:11:42;;;;;;;0.10;0.10;;;;;;;;;;4981991;28;20044;-75
2022/11/26 02:14:20;;;;;;;4.53;4.32;;;2.70;99.90;;;;;;4965143;28;20038;-74
2022/11/26 02:17:27;;;;;;;0.47;0.47;;;2.60;99.90;;;;;;4983190;28;20123;-75
2022/11/26 02:19:59;;;;;;;0.10;0.10;;;2.60;99.90;;;;;;4982533;28;20287;-75
2022/11/26 02:22:49;;;;;;;0.00;0.00;;;2.60;99.90;;;;;;4982718;28;20033;-75
2022/11/26 02:25:26;;;;;;;1.05;1.05;;;2.70;99.90;;;;;;4982422;28;20253;-75
2022/11/26 02:28:30;;;;;;;1.02;1.02;;;2.70;99.90;;;;;;4965219;28;20030;-75
2022/11/26 02:31:04;;;;;;;0.10;0.10;;;2.70;99.90;;;;;;4982187;28;20030;-75
2022/11/26 02:33:40;;;;;;;4.47;4.22;;;2.50;99.90;;;;;;4964746;28;20042;-75
2022/11/26 02:36:13;;;;;;;0.10;0.10;;;2.60;99.90;;;;;;4982640;28;20026;-75
2022/11/26 02:38:40;;;;;;;0.10;0.10;;;2.60;99.90;;;;;;4982876;28;20030;-75
2022/11/26 02:41:06;;;;;;;0.10;0.10;;;2.70;99.90;;;;;;4983939;28;20466;-75
2022/11/26 02:43:33;;;;;;;0.00;0.00;;;2.70;99.90;;;;;;4984012;28;20050;-75
2022/11/26 02:46:03;;;;;;;9.05;4.03;;;2.60;99.90;;;;;;4991015;28;20022;-75
2022/11/26 02:48:37;;;;;;;0.30;0.30;;;2.60;99.90;;;;;;4991491;28;20089;-75
2022/11/26 02:51:10;;;;;;;0.10;0.10;;;2.60;99.90;;;;;;4990222;28;20117;-75
2022/11/26 02:53:37;;;;;;;0.35;0.35;;;2.60;99.90;;;;;;4987891;28;20160;-75
2022/11/26 02:56:08;;;;;;;4.70;4.40;;;2.60;99.90;;;;;;4982248;28;20520;-75
2022/11/26 02:58:34;;;;;;;4.90;4.72;;;;;;;;;;4964093;28;20022;-75
2022/11/26 03:01:05;;;;;;;0.10;0.10;;;2.70;99.90;;;;;;4981666;28;20029;-75
2022/11/26 03:03:36;;;;;;;3.55;3.42;;;2.80;99.90;;;;;;4981597;28;20647;-75
2022/11/26 03:06:06;;;;;;;6.18;5.88;;;2.70;99.90;;;;;;4981566;28;20052;-74
2022/11/26 03:08:32;;;;;;;4.15;4.00;;;2.70;99.90;;;;;;4964314;28;20617;-75
2022/11/26 03:10:58;;;;;;;0.10;0.10;;;2.70;99.90;;;;;;4981072;28;20049;-75
2022/11/26 03:13:24;;;;;;;0.10;0.10;;;2.80;99.90;;;;;;4965540;28;20044;-75
2022/11/26 03:15:50;;;;;;;0.00;0.00;;;2.80;99.90;;;;;;4981598;28;20327;-75
2022/11/26 03:18:16;;;;;;;0.10;0.10;;;2.80;99.90;;;;;;4981463;28;20022;-75
2022/11/26 03:20:42;;;;;;;0.85;0.85;;;2.90;99.90;;;;;;4989635;28;20054;-75
2022/11/26 03:23:08;;;;;;;0.25;0.25;;;2.80;99.90;;;;;;4982233;28;20109;-75
2022/11/26 03:25:34;;;;;;;30.17;19.67;;;2.80;99.90;;;;;;4982754;28;20048;-75
2022/11/26 03:28:00;;;;;;;0.10;0.10;;;2.90;99.90;;;;;;4964162;28;20030;-75
2022/11/26 03:30:26;;;;;;;0.30;0.30;;;2.80;99.90;;;;;;4981379;28;20022;-75
2022/11/26 03:32:52;;;;;;;4.05;3.92;;;2.80;99.90;;;;;;4981536;28;20614;-75
2022/11/26 03:35:18;;;;;;;6.13;5.93;;;3.20;99.90;;;;;;4981116;28;20030;-74
2022/11/26 03:37:43;;;;;;;0.10;0.10;;;2.60;99.90;;;;;;4982317;28;20035;-75
2022/11/26 03:40:10;;;;;;;0.00;0.00;;;2.90;99.90;;;;;;4964187;28;20037;-75
2022/11/26 03:42:36;;;;;;;0.00;0.00;;;2.40;99.90;;;;;;4982299;28;20022;-75
2022/11/26 03:45:02;;;;;;;1.17;1.15;;;2.40;99.90;;;;;;4981047;28;20236;-75
2022/11/26 03:47:28;;;;;;;0.28;0.28;;;2.40;99.90;;;;;;4963204;28;20430;-75
2022/11/26 03:49:54;;;;;;;0.10;0.10;;;;;;;;;;4964171;28;20022;-75
2022/11/26 03:52:20;;;;;;;0.10;0.10;;;2.50;99.90;;;;;;4981121;28;20026;-75
2022/11/26 03:54:46;;;;;;;1.30;0.95;;;2.40;99.90;;;;;;4963863;28;20030;-75
2022/11/26 03:57:12;;;;;;;0.20;0.20;;;2.40;99.90;;;;;;4981021;28;20026;-75
2022/11/26 03:59:38;;;;;;;0.10;0.10;;;2.50;99.90;;;;;;4980755;28;20050;-75
2022/11/26 04:02:05;;;;;;;0.08;0.08;;;2.50;99.90;;;;;;4981598;28;20494;-75
2022/11/26 04:04:30;;;;;;;2.58;2.47;;;2.60;99.90;;;;;;4962873;28;20707;-75
2022/11/26 04:06:56;;;;;;;3.03;2.92;;;2.60;99.90;;;;;;4982634;28;20113;-75
2022/11/26 04:09:23;;;;;;;0.95;0.95;;;2.60;99.90;;;;;;4982393;28;20022;-75
2022/11/26 04:11:49;;;;;;;0.00;0.00;;;;;;;;;;4980774;28;20501;-75
2022/11/26 04:14:14;;;;;;;0.73;0.73;;;2.60;99.90;;;;;;4981053;28;20323;-75
2022/11/26 04:16:40;;;;;;;0.65;0.65;;;2.70;99.90;;;;;;4980673;28;20060;-75
2022/11/26 04:19:06;;;;;;;0.00;0.00;;;2.60;99.90;;;;;;4980232;28;20109;-75
2022/11/26 04:21:32;;;;;;;0.10;0.10;;;2.60;99.90;;;;;;4980486;28;20046;-75
2022/11/26 04:23:58;;;;;;;0.80;0.77;;;2.50;99.90;;;;;;4980793;28;20018;-75
2022/11/26 04:26:24;;;;;;;0.00;0.00;;;2.50;99.90;;;;;;4980294;28;20197;-75
2022/11/26 04:28:50;;;;;;;0.00;0.00;;;;;;;;;;4962590;28;20563;-76
2022/11/26 04:31:17;;;;;;;0.00;0.00;;;2.50;99.90;;;;;;4979929;28;20379;-74
2022/11/26 04:33:42;;;;;;;0.00;0.00;;;2.30;99.90;;;;;;4979587;28;20497;-75
2022/11/26 04:36:09;;;;;;;0.00;0.00;;;2.30;99.90;;;;;;4979438;28;20034;-75
2022/11/26 04:38:35;;;;;;;0.10;0.10;;;2.30;99.90;;;;;;4979889;28;20121;-75
2022/11/26 04:41:01;;;;;;;2.10;2.10;;;2.30;99.90;;;;;;4979825;28;20037;-75
2022/11/26 04:43:27;;;;;;;1.45;1.45;;;2.30;99.90;;;;;;4979469;28;20216;-75
2022/11/26 04:45:52;;;;;;;0.10;0.10;;;2.20;99.90;;;;;;4962143;28;20609;-75
2022/11/26 04:48:18;;;;;;;0.10;0.10;;;2.20;99.90;;;;;;4979834;28;20034;-75
2022/11/26 04:50:44;;;;;;;0.10;0.10;;;2.20;99.90;;;;;;4979262;28;20418;-75
2022/11/26 04:53:10;;;;;;;0.00;0.00;;;2.20;99.90;;;;;;4979376;28;20053;-75
2022/11/26 04:55:36;;;;;;;0.10;0.10;;;2.20;99.90;;;;;;4980007;28;20037;-75
2022/11/26 04:58:02;;;;;;;0.22;0.22;;;;;;;;;;4979591;28;20401;-75
2022/11/26 05:00:28;;;;;;;0.10;0.10;;;2.20;99.90;;;;;;4979410;28;20018;-75
2022/11/26 05:02:53;;;;;;;0.00;0.00;;;2.10;99.90;;;;;;4979455;28;20244;-75
2022/11/26 05:05:19;;;;;;;0.10;0.10;;;2.10;99.90;;;;;;4979279;28;20521;-75
2022/11/26 05:07:45;;;;;;;0.08;0.08;;;2.10;99.90;;;;;;4979183;28;20026;-75
2022/11/26 05:10:11;;;;;;;1.33;1.27;;;2.10;99.90;;;;;;4979432;28;20037;-75
2022/11/26 05:12:37;;;;;;;2.80;2.72;;;2.20;99.90;;;;;;4961469;28;20194;-75
2022/11/26 05:15:04;;;;;;;0.10;0.10;;;2.10;99.90;;;;;;4979661;28;20564;-75
2022/11/26 05:17:30;;;;;;;28.25;26.40;;;2.10;99.90;;;;;;4979282;28;20072;-75
2022/11/26 05:19:57;;;;;;;0.00;0.00;;;;;;;;;;4980930;28;20033;-75
2022/11/26 05:22:24;;;;;;;0.13;0.13;;;2.10;99.90;;;;;;4979334;28;20587;-74
2022/11/26 05:24:49;;;;;;;0.50;0.50;;;2.10;99.90;;;;;;4961795;28;20022;-74
2022/11/26 05:27:15;;;;;;;0.30;0.30;;;2.00;99.90;;;;;;4979760;28;20424;-74
2022/11/26 05:29:41;;;;;;;31.48;28.35;;;2.00;99.90;;;;;;4979080;28;20058;-75
2022/11/26 05:32:07;;;;;;;0.10;0.10;;;2.10;99.90;;;;;;4979424;28;20046;-75
2022/11/26 05:34:33;;;;;;;0.00;0.00;;;2.00;99.90;;;;;;4978974;28;20030;-74
2022/11/26 05:36:59;;;;;;;0.40;0.40;;;2.00;99.90;;;;;;4961236;28;20026;-74
2022/11/26 05:39:25;;;;;;;0.10;0.10;;;2.00;99.90;;;;;;4961241;28;20026;-75
2022/11/26 05:41:51;;;;;;;1.58;1.55;;;1.90;99.90;;;;;;4979523;28;20500;-74
2022/11/26 05:44:17;;;;;;;2.17;2.10;;;1.90;99.90;;;;;;4965024;28;20501;-75
2022/11/26 05:46:43;;;;;;;4.53;4.22;;;1.90;99.90;;;;;;4978442;28;20560;-75
2022/11/26 05:49:08;;;;;;;0.10;0.10;;;1.90;99.90;;;;;;4979737;28;20015;-75
2022/11/26 05:51:34;;;;;;;0.10;0.10;;;1.90;99.90;;;;;;4978703;28;20390;-74
2022/11/26 05:54:00;;;;;;;9.32;8.77;;;1.90;99.90;;;;;;4978986;28;20089;-75
2022/11/26 05:56:26;;;;;;;0.10;0.10;;;1.90;99.90;;;;;;4984410;28;20023;-75
2022/11/26 05:58:52;;;;;;;0.10;0.10;;;1.90;99.90;;;;;;4982369;28;20667;-75
2022/11/26 06:01:17;;;;;;;15.55;14.35;;;2.00;99.90;;;;;;4982034;28;20057;-75
2022/11/26 06:03:43;;;;;;;1.38;1.33;;;2.00;99.90;;;;;;4981982;28;20102;-75
2022/11/26 06:06:09;;;;;;;2.00;1.95;;;2.10;99.90;;;;;;4980336;28;20320;-74
2022/11/26 06:08:35;;;;;;;0.05;0.05;;;2.10;99.90;;;;;;4978988;28;20058;-74
2022/11/26 06:11:03;;;;;;;2.88;2.78;;;2.50;99.90;;;;;;4980353;28;20085;-74
2022/11/26 06:13:29;;;;;;;0.10;0.10;;;2.00;99.90;;;;;;4978902;28;20081;-74
2022/11/26 06:15:55;;;;;;;5.80;5.57;;;1.90;99.90;;;;;;4979187;28;20026;-74
2022/11/26 06:18:20;;;;;;;0.47;0.47;;;1.90;99.90;;;;;;4978382;28;20023;-74
2022/11/26 06:20:46;;;;;;;0.20;0.20;;;1.80;99.90;;;;;;4979228;28;20027;-75
2022/11/26 06:23:12;;;;;;;0.28;0.28;;;1.60;99.90;;;;;;4978609;28;20651;-75
2022/11/26 06:25:41;;;;;;;13.77;12.98;;;1.60;99.90;;;;;;4978871;28;20031;-75
2022/11/26 06:28:07;;;;;;;0.00;0.00;;;1.70;99.90;;;;;;4979054;28;20092;-74
2022/11/26 06:30:33;;;;;;;2.15;2.05;;;2.00;99.90;;;;;;4978125;28;20034;-75
2022/11/26 06:32:59;;;;;;;9.75;9.27;;;1.90;99.90;;;;;;4978474;28;20105;-75
2022/11/26 06:35:25;;;;;;;0.05;0.05;;;;;;;;;;4978761;28;20019;-75
2022/11/26 06:37:52;;;;;;;0.10;0.10;;;1.90;99.90;;;;;;4980096;28;20027;-74
2022/11/26 06:40:19;;;;;;;0.00;0.00;;;2.00;99.90;;;;;;4978956;28;20026;-74
2022/11/26 06:42:49;;;;;;;0.10;0.10;;;2.10;99.90;;;;;;4978559;28;20037;-75
2022/11/26 06:45:15;;;;;;;0.10;0.10;;;2.20;99.90;;;;;;4978697;28;20105;-75
2022/11/26 06:47:41;;;;;;;0.20;0.20;;;2.20;99.90;;;;;;4961394;28;20565;-74
2022/11/26 06:50:07;;;;;;;0.10;0.10;;;2.30;99.90;;;;;;4979513;28;20023;-75
2022/11/26 06:52:33;;;;;;;0.00;0.00;;;2.40;99.90;;;;;;4961821;28;20084;-75
2022/11/26 06:54:59;;;;;;;1.38;1.33;;;2.40;99.90;;;;;;4980099;28;20050;-75
2022/11/26 06:57:25;;;;;;;0.10;0.10;;;2.40;99.90;;;;;;4983587;28;20138;-75
2022/11/26 06:59:51;;;;;;;0.10;0.10;;;2.50;99.90;;;;;;4984021;28;20030;-74
2022/11/26 07:02:17;;;;;;;0.40;0.40;;;2.50;99.90;;;;;;4968794;28;20260;-75
2022/11/26 07:04:42;;;;;;;0.10;0.10;;;2.50;99.90;;;;;;4987082;28;20205;-74
2022/11/26 07:07:08;;;;;;;0.10;0.10;;;2.60;99.90;;;;;;4983234;28;20035;-75
2022/11/26 07:09:34;;;;;;;0.08;0.08;;;2.60;99.90;;;;;;4983153;28;20435;-74
2022/11/26 07:11:59;;;;;;;33.45;18.73;;;2.70;99.90;;;;;;4981736;28;20114;-75
2022/11/26 07:14:25;;;;;;;0.40;0.40;;;2.80;99.90;;;;;;4983070;28;20097;-76
2022/11/26 07:16:51;;;;;;;0.00;0.00;;;2.80;99.90;;;;;;4982807;28;20498;-75
2022/11/26 07:19:17;;;;;;;0.05;0.05;;;2.80;99.90;;;;;;4965286;28;20146;-75
2022/11/26 07:21:43;;;;;;;0.10;0.10;;;2.90;99.90;;;;;;4982308;28;20432;-75
2022/11/26 07:24:08;;;;;;;4.45;4.28;;;3.00;99.90;;;;;;4982162;28;20026;-75
2022/11/26 07:26:35;;;;;;;0.10;0.10;;;3.00;99.90;;;;;;4982511;28;20335;-75
2022/11/26 07:29:01;;;;;;;0.10;0.10;;;3.10;99.90;;;;;;4982116;28;20412;-75
2022/11/26 07:31:27;;;;;;;0.20;0.20;;;3.20;99.90;;;;;;4984245;28;20023;-75
2022/11/26 07:33:53;;;;;;;0.15;0.15;;;3.30;99.90;;;;;;4981764;28;20075;-75
2022/11/26 07:36:26;;;;;;;0.00;0.00;;;3.30;99.90;;;;;;4964096;28;20065;-75
2022/11/26 07:38:54;;;;;;;6.30;6.07;;;3.40;99.90;;;;;;4982622;28;20026;-75
2022/11/26 07:41:20;;;;;;;0.30;0.30;;;3.50;99.90;;;;;;4982062;28;20579;-75
2022/11/26 07:43:46;;;;;;;0.80;0.80;;;3.60;99.90;;;;;;4982289;28;20251;-75
2022/11/26 07:46:18;;;;;;;1.33;1.33;;;3.60;99.90;;;;;;4981512;28;20686;-75
2022/11/26 07:48:44;;;;;;;0.35;0.35;;;;;;;;;;4981958;28;20041;-75
2022/11/26 07:51:22;;;;;;;1.13;1.13;;;3.70;99.90;;;;;;4981269;28;20030;-74
2022/11/26 07:53:49;;;;;;;0.10;0.10;;;3.80;99.90;;;;;;4983891;28;20512;-75
2022/11/26 07:56:15;;;;;;;6.70;6.38;;;3.90;99.90;;;;;;4981609;28;20022;-75
2022/11/26 07:58:41;;;;;;;6.03;4.50;;;3.90;99.90;;;;;;4985338;28;20405;-75
2022/11/26 08:01:16;;;;;;;0.10;0.10;;;4.00;99.90;;;;;;4982566;28;20018;-75
2022/11/26 08:03:45;;;;;;;0.10;0.10;;;4.00;99.90;;;;;;4963566;28;20026;-75
2022/11/26 08:06:13;;;;;;;5.05;4.85;;;4.20;99.90;;;;;;4980447;28;20057;-75
2022/11/26 08:08:39;;;;;;;2.92;1.88;;;4.10;99.90;;;;;;4963447;28;20485;-75
2022/11/26 08:11:16;;;;;;;28.42;27.27;;;4.00;99.90;;;;;;4981003;28;20128;-75
2022/11/26 08:13:42;;;;;;;0.20;0.20;;;3.90;99.90;;;;;;4982649;28;20240;-76
2022/11/26 08:16:11;;;;;;;1.42;1.38;;;4.10;99.90;;;;;;4982294;28;20571;-76
2022/11/26 08:18:38;;;;;;;0.57;0.57;;;4.10;99.90;;;;;;4982496;28;20509;-75
2022/11/26 08:21:04;;;;;;;0.00;0.00;;;4.20;99.90;;;;;;4968023;28;20420;-75
2022/11/26 08:23:31;;;;;;;1.88;1.75;;;4.20;99.90;;;;;;4984137;28;20547;-75
2022/11/26 08:25:57;;;;;;;19.58;18.10;;;4.10;99.90;;;;;;4986765;28;20181;-75
2022/11/26 08:28:23;;;;;;;0.10;0.10;;;;;;;;;;4982129;28;20190;-75
2022/11/26 08:30:49;;;;;;;0.20;0.20;;;4.40;99.90;;;;;;4982078;28;20057;-75
2022/11/26 08:33:15;;;;;;;0.10;0.10;;;4.80;99.90;;;;;;4982717;28;20190;-75
2022/11/26 08:35:41;;;;;;;0.10;0.10;;;4.60;99.90;;;;;;4982565;28;20504;-75
2022/11/26 08:38:06;;;;;;;0.10;0.10;;;4.60;99.90;;;;;;4982702;28;20357;-75
2022/11/26 08:40:35;;;;;;;0.10;0.10;;;4.70;99.90;;;;;;4985793;28;20327;-77
2022/11/26 08:43:02;;;;;;;0.70;0.70;;;3.70;99.90;;;;;;4984744;28;20037;-76
2022/11/26 08:45:28;;;;;;;13.65;12.32;;;4.60;99.90;;;;;;4966167;28;20026;-75
2022/11/26 08:47:54;;;;;;;10.25;9.80;;;4.40;99.90;;;;;;4983117;28;20726;-76
2022/11/26 08:50:20;;;;;;;0.10;0.10;;;4.60;99.90;;;;;;4965514;28;20138;-76
2022/11/26 08:52:46;;;;;;;0.08;0.08;;;5.70;99.90;;;;;;4983120;28;20034;-76
2022/11/26 08:55:12;;;;;;;0.98;0.98;;;4.50;99.90;;;;;;4983786;28;20031;-76
2022/11/26 08:57:37;;;;;;;0.15;0.15;;;4.30;99.90;;;;;;4965636;28;20108;-76
2022/11/26 09:00:04;;;;;;;22.70;21.63;;;4.60;99.90;;;;;;4983687;28;20019;-76
2022/11/26 09:02:31;;;;;;;0.68;0.68;;;4.40;99.90;;;;;;4984360;28;20807;-76
2022/11/26 09:04:57;;;;;;;0.17;0.17;;;4.50;99.90;;;;;;4994692;28;20027;-76
2022/11/26 09:07:23;;;;;;;0.10;0.10;;;4.50;99.90;;;;;;4967076;28;20093;-76
2022/11/26 09:09:49;;;;;;;0.10;0.10;;;4.50;99.90;;;;;;4975193;28;20023;-77
2022/11/26 09:12:15;;;;;;;0.13;0.13;;;4.60;99.90;;;;;;4987281;28;20034;-76
2022/11/26 09:14:41;;;;;;;0.22;0.22;;;;;;;;;;4987668;28;20105;-76
2022/11/26 09:17:08;;;;;;;0.00;0.00;;;4.50;99.90;;;;;;4968608;28;20037;-76
2022/11/26 09:19:36;;;;;;;5.60;5.40;;;3.80;99.90;;;;;;4984569;28;20030;-76
2022/11/26 09:22:04;;;;;;;5.90;4.97;;;4.40;99.90;;;;;;4994219;28;20244;-76
2022/11/26 09:24:30;;;;;;;0.08;0.08;;;4.40;99.90;;;;;;4988559;28;20026;-76
2022/11/26 09:26:56;;;;;;;0.10;0.10;;;4.50;99.90;;;;;;4985380;28;20034;-76
2022/11/26 09:29:23;;;;;;;0.30;0.30;;;4.60;99.90;;;;;;4985001;28;20026;-76
2022/11/26 09:31:49;;;;;;;0.10;0.10;;;4.70;99.90;;;;;;4982285;28;20656;-76
2022/11/26 09:34:15;;;;;;;50.20;45.83;;;4.70;99.90;;;;;;4982735;28;20636;-76
2022/11/26 09:36:41;;;;;;;0.10;0.10;;;3.50;99.90;;;;;;4988205;28;20038;-76
2022/11/26 09:39:07;;;;;;;0.38;0.38;;;4.70;99.90;;;;;;4966288;28;20022;-76
2022/11/26 09:41:58;;;;;;;0.20;0.20;;;4.90;99.90;;;;;;4982056;28;20060;-76
2022/11/26 09:44:44;;;;;;;0.10;0.10;;;4.90;99.90;;;;;;4982554;28;20570;-76
2022/11/26 09:47:16;;;;;;;0.10;0.10;;;4.80;99.90;;;;;;4981624;28;20547;-76
2022/11/26 09:50:05;;;;;;;0.50;0.50;;;4.90;99.90;;;;;;4981820;28;20022;-76
2022/11/26 09:53:00;;;;;;;0.10;0.10;;;4.90;99.90;;;;;;4980832;28;20491;-76
2022/11/26 09:55:29;;;;;;;0.10;0.10;;;4.80;99.90;;;;;;4995239;28;20098;-76
2022/11/26 09:58:11;;;;;;;0.10;0.10;;;4.90;99.90;;;;;;4985351;28;20689;-76
2022/11/26 10:00:44;;;;;;;0.10;0.10;;;5.00;99.90;;;;;;4970710;28;20118;-76
2022/11/26 10:03:29;;;;;;;0.10;0.10;;;5.00;99.90;;;;;;4969352;28;20578;-76
2022/11/26 10:06:07;;;;;;;0.75;0.75;;;5.00;99.90;;;;;;4987792;28;20049;-76
2022/11/26 10:08:51;;;;;;;1.60;1.55;;;5.00;99.90;;;;;;4989956;28;20030;-76
2022/11/26 10:11:33;;;;;;;1.10;1.08;;;5.10;99.90;;;;;;4985471;28;20058;-76
2022/11/26 10:14:17;;;;;;;0.73;0.73;;;4.60;99.90;;;;;;4986476;28;20114;-75
2022/11/26 10:17:01;;;;;;;78.60;30.08;;;5.00;99.90;;;;;;4987451;28;20018;-76
2022/11/26 10:19:44;;;;;;;0.05;0.05;;;5.00;99.90;;;;;;4990189;28;20084;-76
2022/11/26 10:22:26;;;;;;;0.60;0.60;;;5.00;99.90;;;;;;5000070;28;20022;-76
2022/11/26 10:24:55;;;;;;;0.10;0.10;;;4.70;99.90;;;;;;5000331;28;20033;-76
2022/11/26 10:27:29;;;;;;;0.13;0.13;;;5.30;99.90;;;;;;5002653;28;20083;-77
2022/11/26 10:30:08;;;;;;;0.55;0.55;;;4.50;99.90;;;;;;4987112;28;20027;-76
2022/11/26 10:32:43;;;;;;;0.20;0.20;;;5.00;99.90;;;;;;4994406;28;20026;-76
2022/11/26 10:35:20;;;;;;;19.38;18.60;;;4.70;99.90;;;;;;5009068;28;20023;-75
2022/11/26 10:37:49;;;;;;;0.10;0.10;;;;;;;;;;4976557;28;20041;-74
2022/11/26 10:40:32;;;;;;;40.33;35.65;;;4.80;99.90;;;;;;5004161;28;20041;-76
2022/11/26 10:43:18;;;;;;;0.10;0.10;;;4.80;99.90;;;;;;4981866;28;20038;-77
2022/11/26 10:45:52;;;;;;;0.03;0.03;;;4.70;99.90;;;;;;5015367;28;20033;-77
2022/11/26 10:48:18;;;;;;;0.03;0.03;;;;;;;;;;4998085;28;20030;-77
2022/11/26 10:51:12;;;;;;;0.00;0.00;;;4.80;99.90;;;;;;5015719;28;20028;-77
2022/11/26 10:54:04;;;;;;;0.10;0.10;;;4.90;99.90;;;;;;5013001;28;20069;-76
2022/11/26 10:56:51;;;;;;;1.98;1.90;;;5.50;99.90;;;;;;5013463;28;20030;-75
2022/11/26 10:59:35;;;;;;;0.70;0.70;;;4.80;99.90;;;;;;4976435;28;20031;-76
2022/11/26 11:02:30;;;;;;;0.10;0.10;;;4.90;99.90;;;;;;4987887;28;20038;-75
2022/11/26 11:05:00;;;;;;;0.40;0.40;;;4.70;99.90;;;;;;5001606;28;20050;-76
2022/11/26 11:07:26;;;;;;;0.30;0.30;;;4.60;99.90;;;;;;4967861;28;20050;-76
2022/11/26 11:10:10;;;;;;;0.10;0.10;;;4.70;99.90;;;;;;4985089;28;20077;-76
2022/11/26 11:12:40;;;;;;;1.17;1.17;;;4.60;99.90;;;;;;4985879;28;20037;-76
2022/11/26 11:15:27;;;;;;;9.68;8.95;;;4.60;99.90;;;;;;4986442;28;20711;-76
2022/11/26 11:18:02;;;;;;;8.65;8.32;;;4.50;99.90;;;;;;4987166;28;20037;-76
2022/11/26 11:20:37;;;;;;;9.35;8.90;;;4.60;99.90;;;;;;4984373;28;20089;-76
2022/11/26 11:23:09;;;;;;;7.47;7.18;;;4.60;99.90;;;;;;4985336;28;20674;-75
2022/11/26 11:25:38;;;;;;;1.95;1.85;;;4.70;99.90;;;;;;4984407;28;20304;-75
2022/11/26 11:28:06;;;;;;;0.13;0.13;;;4.80;99.90;;;;;;4968087;28;20045;-76
2022/11/26 11:30:36;;;;;;;0.20;0.20;;;4.80;99.90;;;;;;4983487;28;20020;-76
2022/11/26 11:33:19;;;;;;;0.10;0.10;;;4.90;99.90;;;;;;4985270;28;20049;-76
2022/11/26 11:35:57;;;;;;;0.10;0.10;;;4.90;99.90;;;;;;4983667;28;20048;-76
2022/11/26 11:38:27;;;;;;;0.10;0.10;;;5.00;99.90;;;;;;4991620;28;20033;-76
2022/11/26 11:40:53;;;;;;;3.00;2.90;;;5.00;99.90;;;;;;4983630;28;20014;-76
2022/11/26 11:43:21;;;;;;;14.40;6.78;;;5.00;99.90;;;;;;4989510;28;20024;-75
2022/11/26 11:46:38;;;;;;;0.25;0.25;;;5.10;99.90;;;;;;4969011;28;20092;-77
2022/11/26 11:49:28;;;;;;;0.10;0.10;;;5.00;99.90;;;;;;4886834;29;20041;-76
2022/11/26 11:55:31;;;;;;;0.10;0.10;;;5.20;99.90;;;;;;4811305;29;20073;-76
2022/11/26 11:58:06;;;;;;;0.10;0.10;;;5.30;99.90;;;;;;4811472;29;20620;-76
2022/11/26 12:00:43;;;;;;;5.90;5.57;;;5.30;99.90;;;;;;4810612;29;20046;-76
2022/11/26 12:03:12;;;;;;;2.58;2.47;;;5.40;99.90;;;;;;4814260;29;20036;-76
2022/11/26 12:05:55;;;;;;;0.03;0.03;;;3.40;99.90;;;;;;4811126;29;20632;-76
2022/11/26 12:08:44;;;;;;;0.10;0.10;;;5.40;99.90;;;;;;4820771;29;20038;-76
2022/11/26 12:11:36;;;;;;;2.88;2.78;;;5.30;99.90;;;;;;4814328;29;20098;-75
2022/11/26 12:14:31;;;;;;;0.00;0.00;;;5.30;99.90;;;;;;4812271;29;20123;-76
2022/11/26 12:17:07;;;;;;;0.47;0.47;;;5.20;99.90;;;;;;4813429;29;20031;-76
2022/11/26 12:19:49;;;;;;;0.10;0.10;;;5.10;99.90;;;;;;4810005;29;20035;-75
2022/11/26 12:22:27;;;;;;;19.15;18.17;;;5.20;99.90;;;;;;4809367;29;20030;-75
2022/11/26 12:25:25;;;;;;;0.85;0.85;;;5.20;99.90;;;;;;4824031;29;20067;-75
2022/11/26 12:27:56;;;;;;;0.25;0.25;;;5.20;99.90;;;;;;4865597;29;20716;-76
2022/11/26 12:30:29;;;;;;;0.00;0.00;;;5.20;99.90;;;;;;4865005;29;20069;-75
2022/11/26 12:33:20;;;;;;;6.27;6.07;;;5.30;99.90;;;;;;4919178;29;20086;-75
2022/11/26 12:35:52;;;;;;;7.05;6.80;;;2.30;99.90;;;;;;4923846;29;20099;-76
2022/11/26 12:38:29;;;;;;;0.10;0.10;;;5.30;99.90;;;;;;4922871;29;20038;-75
2022/11/26 12:40:59;;;;;;;0.20;0.20;;;5.30;99.90;;;;;;4921161;29;20059;-76
2022/11/26 12:43:38;;;;;;;9.82;9.38;;;5.20;99.90;;;;;;4925826;29;20027;-76
2022/11/26 12:46:15;;;;;;;105.82;102.00;;;5.60;99.90;;;;;;4924053;29;20701;-76
2022/11/26 12:48:55;;;;;;;4.57;4.40;;;4.90;99.90;;;;;;4921371;29;20031;-75
2022/11/26 12:51:42;;;;;;;0.10;0.10;;;4.90;99.90;;;;;;4920881;28;20039;-76
2022/11/26 12:54:29;;;;;;;0.85;0.85;;;4.90;99.90;;;;;;4919836;29;20036;-76
2022/11/26 12:57:07;;;;;;;6.43;6.13;;;4.90;99.90;;;;;;4922263;29;20104;-75
2022/11/26 13:00:10;;;;;;;0.00;0.00;;;4.90;99.90;;;;;;4922590;29;20039;-75
2022/11/26 13:02:45;;;;;;;0.10;0.10;;;4.90;99.90;;;;;;4922576;29;20175;-75
2022/11/26 13:05:35;;;;;;;0.90;0.90;;;5.10;99.90;;;;;;4941275;28;20050;-76
2022/11/26 13:08:19;;;;;;;1.30;1.30;;;4.90;99.90;;;;;;4982842;28;20066;-76
2022/11/26 13:10:55;;;;;;;0.10;0.10;;;4.90;99.90;;;;;;4983311;28;20019;-75
2022/11/26 13:13:50;;;;;;;0.10;0.10;;;4.80;99.90;;;;;;4982887;28;20062;-76
2022/11/26 13:16:27;;;;;;;0.93;0.90;;;4.80;99.90;;;;;;4985222;28;20129;-75
2022/11/26 13:18:57;;;;;;;6.90;6.43;;;4.90;99.90;;;;;;4990978;28;20037;-75
2022/11/26 13:21:35;;;;;;;0.80;0.80;;;4.80;99.90;;;;;;4992479;28;20027;-76
2022/11/26 13:24:07;;;;;;;0.40;0.40;;;4.90;99.90;;;;;;4990453;28;20023;-76